LIPZLIPO

Guest
Details From LIPZ - Venezia Tessera
To LIPO - Montichiari
Flight Number -
Tags Generated
Created
Modified
Stats Distance 85 nm / 158 km
Max Altitude 0 ft / 0 m
Waypoints 2
Social Downloads 0
Likes 0
Share VATSIM

Download

Looking for another format? Having issues loading an existing format? Contact us
Advertisement - Login to hide

Notes

Generated

Route

LIPZ LIPO

ID Type Via Altitude Latitude Longitude Leg Dist Tot Dist Heading (true) Name
O LIPZ APT - 0 ft / 0 m 45.49516˚ 12.33556˚ - 0 nm - -
O LIPO APT - 0 ft / 0 m 45.43832˚ 10.31796˚ 85 nm 85 nm 268° / 267° -

Altitude Profile

Advertisement - Login to hide

LIPZ

Details ICAO LIPZ (VCE)
Name Venezia Tessera
Region Italy
Timezone Europe/Rome (UTC+2.0)
Stats Elevation 7 ft / 2 m (AMSL)
Location 45.504791° 12.349691°
Runways 2
Magnetic Variation 3.230° E

METAR

LIPZ 270320Z 01006KT 8000 NSC 19/18 Q1018 NOSIG

Decode

TAF

TAF LIPZ 262300Z 2700/2806 04008KT 9999 FEW040 BECMG 2708/2711 14010KT BECMG 2716/2719 VRB05KT

Decode

Departure Runways

ID Width Length Bearing (true) Bearing (mag) Surface Threshold Offset Overrun Length
04L 148 ft / 45 m 9,112 ft / 2,777 m 42.01° 38.78° Asphalt 312 ft / 95 m 0 ft / 0 m
04R 148 ft / 45 m 10,834 ft / 3,302 m 41.99° 38.76° Asphalt 0 ft / 0 m 0 ft / 0 m
22L 148 ft / 45 m 10,834 ft / 3,302 m 222.01° 218.78° Asphalt 0 ft / 0 m 0 ft / 0 m
22R 148 ft / 45 m 9,112 ft / 2,777 m 222.02° 218.79° Asphalt 0 ft / 0 m 0 ft / 0 m

LIPO

Details ICAO LIPO (VBS)
Name Montichiari
Region Italy
Timezone Europe/Rome (UTC+2.0)
Stats Elevation 344 ft / 105 m (AMSL)
Location 45.428548° 10.331283°
Runways 1
Magnetic Variation 2.790° E

METAR

LIPO 270250Z 06006KT 8000 SCT050 21/16 Q1019

Decode

TAF

TAF LIPO 262300Z 2700/2724 VRB05KT 9999 SCT030 SCT060 TEMPO 2703/2708 TSRA TEMPO 2715/2718 TSRA

Decode

Destination Runways

ID Width Length Bearing (true) Bearing (mag) Surface Threshold Offset Overrun Length
14 154 ft / 47 m 9,821 ft / 2,993 m 134.99° 132.20° Asphalt 984 ft / 300 m 0 ft / 0 m
32 154 ft / 47 m 9,821 ft / 2,993 m 315.01° 312.22° Asphalt 623 ft / 190 m 0 ft / 0 m

Approach Navaids

Runway Type Ident Frequency Range Bearing (true) Bearing (mag) Slope Elevation
32 Localiser IBS 110.55 MHz 18 nm / 33 km 315.02° 312.23° - 356 ft / 109 m (AMSL)
32 Glidescope IBS 110.55 MHz 10 nm / 19 km 315.00° 312.21° 3.00° 356 ft / 109 m (AMSL)
32 DME IBS 110.55 MHz 25 nm / 46 km - - - 356 ft / 109 m (AMSL)

Popular Alternatives